Richwood, WV (26261)

1:49 AM EST on February 10, 2016 (GMT -0500)
Summersville | | Change Station
CLOSE
Current Station
Personal Weather Station
Location: Summersville, WV
Elevation: 1932 ft
Nearby Weather Stations
Active Advisory: Winter Weather Advisory Active Notice: Local Storm Report

Elev 1932 ft 38.30 °N, 80.84 °W | Updated 12 minutes ago

Snow
Snow
18.3 °F
Feels Like 13 °F
N
3.8
Wind Variable Wind from SSW

Today
High -- | Low -- °F
--% Chance of Precip.
Yesterday
High -- | Low -- °F
Precip. -- in
Pressure 29.74 in
Visibility 5.0 miles
Clouds Scattered Clouds 2000 ft
Overcast 2800 ft
Windchill 13 °F
Dew Point 15 °F
Humidity 87%
Rainfall 0.00 in
Snow Depth Not available.
7:18 AM 5:54 PM
Waxing Crescent, 4% visible
METAR KLWB 100635Z AUTO 27004KT 5SM -SN SCT020 OVC028 M06/M09 A2974 RMK AO2 T10581088
Pressure 29.74 in
Visibility 5.0 miles
Clouds Scattered Clouds 2000 ft
Overcast 2800 ft
Windchill 13 °F
Dew Point 15 °F
Humidity 87%
Rainfall 0.00 in
Snow Depth Not available.
7:18 AM 5:54 PM
Waxing Crescent, 4% visible
METAR KLWB 100635Z AUTO 27004KT 5SM -SN SCT020 OVC028 M06/M09 A2974 RMK AO2 T10581088

10-Day Weather Forecast

Almanac

Astronomy

Feb. 10, 2016 Rise Set
Actual Time
Civil Twilight
Nautical Twilight
Astronomical Twilight
Moon
Length of Visible Light
Length of Day
Tomorrow will be .
, % of the Moon is Illuminated

Today's Extremes

State Highs State Lows

Community

WunderPhotos

Upload Photos

1,891,826 photos uploaded!

WunderBlog® & News

Nearby

Air Quality

  Air Quality AQ Index Pollutant
Not available.

Snow Depth

Station Depth Elevation

Earthquake Activity

City Distance Mag. Time & Date
Minimum magnitude displayed is 2.5.

Coastal Water Temperatures

Place Temperature

Stations

Nearby Weather Stations

Station Location Temp. Windchill Dew Point Humidity Wind Precip. Elev Updated Type
                   

Watches & Warnings

Winter Weather Advisory
Issued: 5:54 PM EST Feb. 9, 2016 – National Weather Service

... Winter Weather Advisory remains in effect until 7 PM EST
Wednesday...

* hazard types... snow showers of varying intensity.

* Total snow accumulations starting Monday night... 5 to 12
inches.

* Temperatures... 11 to 23. Falling into the teens overnight
tonight along the river valleys... and falling into the single
digits tonight above 3500 feet.

* Wind chill readings... as low as 4 below.

* Impacts... travel may be difficult at times. Visibilities will
be limited at times.

Precautionary/preparedness actions...

A Winter Weather Advisory for snow means that periods of snow
will cause primarily travel difficulties. Be prepared for snow
covered roads and limited visibilities... and use caution while
driving.

With the colder temperatures... have your vehicle equipped with
emergency supplies.